Time;durP1;ratioP1;P1;durP2;ratioP2;P2;SDS_P1;SDS_P2;PMS_P1;PMS_P2;Temp;Humidity;BMP_temperature;BMP_pressure;BME280_temperature;BME280_humidity;BME280_pressure;Samples;Min_cycle;Max_cycle;Signal;HPM_P1;HPM_P2
2021/10/02 00:38:11;;;;;;;11.25;5.80;;;;;;;;;;5060047;28;20043;-69
2021/10/02 00:46:25;;;;;;;10.35;5.80;;;;;;;;;;5001161;28;20045;-70
2021/10/02 00:48:51;;;;;;;9.32;5.47;;;;;;;;;;5027761;28;20037;-70
2021/10/02 00:51:19;;;;;;;8.57;6.30;;;;;;;;;;5053345;28;20403;-70
2021/10/02 00:53:44;;;;;;;9.30;5.43;;;;;;;;;;5036953;28;20039;-70
2021/10/02 00:56:11;;;;;;;10.60;5.88;;;;;;;;;;5033406;28;20025;-71
2021/10/02 00:58:36;;;;;;;12.52;6.20;;;;;;;;;;5038823;28;20040;-70
2021/10/02 01:01:03;;;;;;;12.27;5.90;;;;;;;;;;5053796;28;20025;-71
2021/10/02 01:03:43;;;;;;;8.18;5.90;;;;;;;;;;5032257;28;20092;-70
2021/10/02 01:06:30;;;;;;;11.40;5.85;;;;;;;;;;5053071;28;20104;-70
2021/10/02 01:09:13;;;;;;;7.65;5.90;;;;;;;;;;5033255;28;20044;-70
2021/10/02 01:12:01;;;;;;;8.30;5.67;;;;;;;;;;5068305;28;20027;-70
2021/10/02 01:14:33;;;;;;;11.07;6.40;;;;;;;;;;5065236;28;20035;-70
2021/10/02 01:17:05;;;;;;;10.30;6.35;;;;;;;;;;5070800;28;20043;-70
2021/10/02 01:20:01;;;;;;;10.45;5.82;;;;;;;;;;5063863;28;20025;-71
2021/10/02 01:22:41;;;;;;;11.15;6.40;;;;;;;;;;5033320;28;20483;-70
2021/10/02 01:25:29;;;;;;;9.48;6.20;;;;;;;;;;5049361;28;20021;-69
2021/10/02 01:28:07;;;;;;;10.68;6.15;;;;;;;;;;5052915;28;20056;-71
2021/10/02 01:33:48;;;;;;;;;;;;;;;;;;5045001;28;20473;-70
2021/10/02 01:36:58;;;;;;;12.48;5.60;;;;;;;;;;5036617;28;19963;-70
2021/10/02 01:47:50;;;;;;;11.55;6.40;;;;;;;;;;5071568;28;20075;-70
2021/10/02 01:50:19;;;;;;;7.22;5.28;;;;;;;;;;5055083;28;20024;-70
2021/10/02 01:52:45;;;;;;;9.73;5.70;;;;;;;;;;5061900;28;20492;-71
2021/10/02 01:55:13;;;;;;;15.75;6.30;;;;;;;;;;5068101;28;20028;-70
2021/10/02 01:57:49;;;;;;;11.27;6.10;;;;;;;;;;5071602;28;20468;-71
2021/10/02 02:00:16;;;;;;;12.40;6.20;;;;;;;;;;5071677;28;20480;-71
2021/10/02 02:02:49;;;;;;;10.02;5.47;;;;;;;;;;5053947;28;20105;-70
2021/10/02 02:05:27;;;;;;;9.48;5.60;;;;;;;;;;5062783;28;20071;-71
2021/10/02 02:07:56;;;;;;;10.93;6.57;;;;;;;;;;5069138;28;20032;-70
2021/10/02 02:10:23;;;;;;;11.65;6.32;;;;;;;;;;5052118;28;20358;-70
2021/10/02 02:12:50;;;;;;;9.55;6.65;;;;;;;;;;5071083;28;20024;-70
2021/10/02 02:15:17;;;;;;;9.63;5.93;;;;;;;;;;5071760;28;20081;-71
2021/10/02 02:17:55;;;;;;;13.40;6.53;;;;;;;;;;5058340;28;20029;-71
2021/10/02 02:20:25;;;;;;;10.77;6.95;;;;;;;;;;5051632;28;20381;-70
2021/10/02 02:22:57;;;;;;;17.65;6.90;;;;;;;;;;5051481;28;20025;-71
2021/10/02 02:25:23;;;;;;;12.18;6.32;;;;;;;;;;5053710;28;20420;-70
2021/10/02 02:27:49;;;;;;;10.02;6.90;;;;;;;;;;5065009;28;20078;-70
2021/10/02 02:30:14;;;;;;;9.80;6.55;;;;;;;;;;5053580;28;20082;-70
2021/10/02 02:32:41;;;;;;;13.10;7.10;;;;;;;;;;5051297;28;20021;-71
2021/10/02 02:35:07;;;;;;;12.23;7.20;;;;;;;;;;5033646;28;20102;-70
2021/10/02 02:37:33;;;;;;;11.40;7.28;;;;;;;;;;5051503;28;20420;-70
2021/10/02 02:39:59;;;;;;;13.60;7.68;;;;;;;;;;5051140;28;20104;-70
2021/10/02 02:42:25;;;;;;;13.13;8.18;;;;;;;;;;5051373;28;20021;-70
2021/10/02 02:44:52;;;;;;;12.52;8.65;;;;;;;;;;5058681;28;20035;-70
2021/10/02 02:47:23;;;;;;;14.32;9.00;;;;;;;;;;5059119;28;20040;-70
2021/10/02 02:50:06;;;;;;;12.75;7.68;;;;;;;;;;5055257;28;20033;-70
2021/10/02 02:52:47;;;;;;;11.88;7.65;;;;;;;;;;5051173;28;20032;-70
2021/10/02 02:55:18;;;;;;;15.18;8.23;;;;;;;;;;5051988;28;20037;-71
2021/10/02 02:57:48;;;;;;;15.68;8.90;;;;;;;;;;5060409;28;20026;-70
2021/10/02 03:00:17;;;;;;;11.88;7.57;;;;;;;;;;5059224;28;20535;-70
2021/10/02 03:03:09;;;;;;;13.77;8.27;;;;;;;;;;5056230;28;20120;-70
2021/10/02 03:05:39;;;;;;;13.07;7.93;;;;;;;;;;5069910;28;20052;-69
2021/10/02 03:08:09;;;;;;;11.38;7.90;;;;;;;;;;5070750;28;20061;-71
2021/10/02 03:10:37;;;;;;;14.48;8.73;;;;;;;;;;5069031;28;20031;-70
2021/10/02 03:13:05;;;;;;;11.70;8.20;;;;;;;;;;5044595;28;20029;-70
2021/10/02 03:15:33;;;;;;;12.45;8.10;;;;;;;;;;5041382;28;20072;-70
2021/10/02 03:18:00;;;;;;;16.83;8.23;;;;;;;;;;5050882;28;20085;-70
2021/10/02 03:20:26;;;;;;;16.20;8.38;;;;;;;;;;5033681;28;20029;-70
2021/10/02 03:22:54;;;;;;;13.82;8.18;;;;;;;;;;5055418;28;20483;-70
2021/10/02 03:25:25;;;;;;;13.85;8.65;;;;;;;;;;5052383;28;20131;-70
2021/10/02 03:27:55;;;;;;;14.25;9.38;;;;;;;;;;5063978;28;20025;-70
2021/10/02 03:30:20;;;;;;;13.98;8.80;;;;;;;;;;5050513;28;20064;-70
2021/10/02 03:32:47;;;;;;;13.73;8.57;;;;;;;;;;5050207;28;20428;-69
2021/10/02 03:35:12;;;;;;;17.02;8.85;;;;;;;;;;5032787;28;20322;-70
2021/10/02 03:37:38;;;;;;;15.45;8.93;;;;;;;;;;5031940;28;20550;-70
2021/10/02 03:40:05;;;;;;;18.65;8.48;;;;;;;;;;5050396;28;20603;-69
2021/10/02 03:42:42;;;;;;;14.82;8.20;;;;;;;;;;5050884;28;20083;-70
2021/10/02 03:45:07;;;;;;;14.00;9.00;;;;;;;;;;5050542;28;20114;-70
2021/10/02 03:47:33;;;;;;;15.55;9.32;;;;;;;;;;5050435;28;20059;-70
2021/10/02 03:49:59;;;;;;;16.30;8.68;;;;;;;;;;5054512;28;20025;-70
2021/10/02 03:52:24;;;;;;;15.75;9.73;;;;;;;;;;5069895;28;20021;-70
2021/10/02 03:54:50;;;;;;;15.25;9.18;;;;;;;;;;5064274;28;20040;-70
2021/10/02 03:57:15;;;;;;;14.30;9.15;;;;;;;;;;5051831;28;20060;-70
2021/10/02 03:59:41;;;;;;;15.65;9.30;;;;;;;;;;5066721;28;20074;-70
2021/10/02 04:02:06;;;;;;;17.17;9.75;;;;;;;;;;5056007;28;20050;-70
2021/10/02 04:04:32;;;;;;;14.02;9.10;;;;;;;;;;5057098;28;20044;-70
2021/10/02 04:06:58;;;;;;;16.05;9.18;;;;;;;;;;5065404;28;20039;-70
2021/10/02 04:09:24;;;;;;;17.52;9.32;;;;;;;;;;5053819;28;20514;-70
2021/10/02 04:11:50;;;;;;;13.35;8.82;;;;;;;;;;5047949;28;20036;-70
2021/10/02 04:14:15;;;;;;;11.43;7.90;;;;;;;;;;5048581;28;20030;-70
2021/10/02 04:16:41;;;;;;;16.15;9.27;;;;;;;;;;5048309;28;20025;-69
2021/10/02 04:19:06;;;;;;;10.98;8.32;;;;;;;;;;5067475;28;20052;-69
2021/10/02 04:21:32;;;;;;;12.73;8.65;;;;;;;;;;5064293;28;20032;-70
2021/10/02 04:24:00;;;;;;;12.82;8.43;;;;;;;;;;5073172;28;20024;-70
2021/10/02 04:26:26;;;;;;;12.13;8.13;;;;;;;;;;5073424;28;20028;-70
2021/10/02 04:28:51;;;;;;;13.88;9.20;;;;;;;;;;5062560;28;20389;-70
2021/10/02 04:31:17;;;;;;;13.18;8.48;;;;;;;;;;5053753;28;20036;-69
2021/10/02 04:33:44;;;;;;;14.43;8.77;;;;;;;;;;5053656;28;20029;-69
2021/10/02 04:36:10;;;;;;;14.65;8.32;;;;;;;;;;5053579;28;20025;-69
2021/10/02 04:38:36;;;;;;;16.95;8.80;;;;;;;;;;5053730;28;20090;-69
2021/10/02 04:41:02;;;;;;;12.75;8.93;;;;;;;;;;5053428;28;20052;-69
2021/10/02 04:43:28;;;;;;;13.05;8.77;;;;;;;;;;5053514;28;20404;-70
2021/10/02 04:45:53;;;;;;;14.15;7.75;;;;;;;;;;5053676;28;20020;-69
2021/10/02 04:48:19;;;;;;;12.95;8.88;;;;;;;;;;5058311;28;20056;-70
2021/10/02 04:50:44;;;;;;;15.18;9.13;;;;;;;;;;5058317;28;20033;-69
2021/10/02 04:53:10;;;;;;;17.83;8.73;;;;;;;;;;5053421;28;20079;-70
2021/10/02 04:55:36;;;;;;;14.85;9.68;;;;;;;;;;5063016;28;20029;-70
2021/10/02 04:58:02;;;;;;;13.73;9.13;;;;;;;;;;5052209;28;20021;-69
2021/10/02 05:00:27;;;;;;;15.10;9.23;;;;;;;;;;5063974;28;20473;-69
2021/10/02 05:02:54;;;;;;;15.73;10.32;;;;;;;;;;5053240;28;20025;-69
2021/10/02 05:05:19;;;;;;;15.32;10.38;;;;;;;;;;5053045;28;20048;-69
2021/10/02 05:07:45;;;;;;;17.90;11.40;;;;;;;;;;5053218;28;20098;-70
2021/10/02 05:10:10;;;;;;;14.45;10.05;;;;;;;;;;5052924;28;20028;-69
2021/10/02 05:12:36;;;;;;;22.63;11.13;;;;;;;;;;5053170;28;20036;-69
2021/10/02 05:15:02;;;;;;;16.23;11.05;;;;;;;;;;5053614;28;20051;-69
2021/10/02 05:17:28;;;;;;;15.68;10.35;;;;;;;;;;5064397;28;20504;-69
2021/10/02 05:19:53;;;;;;;18.02;11.82;;;;;;;;;;5052797;28;20073;-69
2021/10/02 05:22:20;;;;;;;17.90;11.77;;;;;;;;;;5053443;28;20024;-69
2021/10/02 05:24:45;;;;;;;17.95;12.40;;;;;;;;;;5059920;28;20384;-69
2021/10/02 05:27:11;;;;;;;15.07;11.85;;;;;;;;;;5070949;28;20029;-69
2021/10/02 05:29:38;;;;;;;15.50;11.95;;;;;;;;;;5069255;28;20032;-69
2021/10/02 05:32:06;;;;;;;20.15;12.50;;;;;;;;;;5055955;28;20027;-69
2021/10/02 05:34:32;;;;;;;18.95;12.27;;;;;;;;;;5041456;28;20052;-69
2021/10/02 05:36:57;;;;;;;19.63;13.23;;;;;;;;;;5054175;28;20622;-69
2021/10/02 05:39:23;;;;;;;18.70;12.05;;;;;;;;;;5066957;28;20029;-69
2021/10/02 05:41:49;;;;;;;18.17;11.30;;;;;;;;;;5052329;28;20029;-69
2021/10/02 05:44:15;;;;;;;16.77;10.18;;;;;;;;;;5052158;28;20028;-69
2021/10/02 05:46:41;;;;;;;14.45;11.05;;;;;;;;;;5052515;28;20048;-70
2021/10/02 05:49:06;;;;;;;15.52;10.10;;;;;;;;;;5052129;28;20072;-69
2021/10/02 05:51:32;;;;;;;15.88;10.43;;;;;;;;;;5051964;28;20025;-69
2021/10/02 05:53:58;;;;;;;15.60;9.88;;;;;;;;;;5056633;28;20036;-70
2021/10/02 05:56:25;;;;;;;13.00;9.45;;;;;;;;;;5063729;28;20392;-70
2021/10/02 05:58:51;;;;;;;15.15;9.90;;;;;;;;;;5053471;28;20035;-69
2021/10/02 06:01:17;;;;;;;14.63;10.10;;;;;;;;;;5052249;28;20494;-69
2021/10/02 06:03:43;;;;;;;13.85;9.60;;;;;;;;;;5054051;28;20044;-70
2021/10/02 06:06:08;;;;;;;14.60;9.38;;;;;;;;;;5051845;28;20021;-69
2021/10/02 06:08:34;;;;;;;13.35;9.40;;;;;;;;;;5051976;28;20034;-70
2021/10/02 06:10:59;;;;;;;12.68;9.45;;;;;;;;;;5058120;28;20028;-69
2021/10/02 06:13:25;;;;;;;13.50;10.02;;;;;;;;;;5071584;28;20031;-70
2021/10/02 06:15:51;;;;;;;14.57;9.90;;;;;;;;;;5069916;28;20029;-70
2021/10/02 06:18:17;;;;;;;13.98;9.15;;;;;;;;;;5040415;28;20044;-69
2021/10/02 06:20:42;;;;;;;16.10;9.38;;;;;;;;;;5071711;28;20027;-70
2021/10/02 06:23:08;;;;;;;13.95;9.77;;;;;;;;;;5068857;28;20030;-69
2021/10/02 06:25:33;;;;;;;15.57;10.80;;;;;;;;;;5062342;28;20025;-70
2021/10/02 06:28:00;;;;;;;13.40;9.32;;;;;;;;;;5071010;28;20024;-70
2021/10/02 06:30:26;;;;;;;14.88;9.70;;;;;;;;;;5059343;28;20036;-69
2021/10/02 06:32:51;;;;;;;13.88;9.57;;;;;;;;;;5064534;28;20024;-69
2021/10/02 06:35:17;;;;;;;15.68;9.25;;;;;;;;;;5070690;28;20082;-70
2021/10/02 06:37:46;;;;;;;12.70;9.70;;;;;;;;;;5056350;28;20056;-69
2021/10/02 06:40:13;;;;;;;14.60;9.10;;;;;;;;;;5050884;28;20032;-69
2021/10/02 06:42:39;;;;;;;13.63;9.30;;;;;;;;;;5052181;28;20051;-69
2021/10/02 06:45:05;;;;;;;12.48;8.63;;;;;;;;;;5052326;28;20373;-69
2021/10/02 06:47:31;;;;;;;12.95;9.05;;;;;;;;;;5062553;28;20523;-69
2021/10/02 06:49:57;;;;;;;12.45;8.60;;;;;;;;;;5059822;28;20120;-70
2021/10/02 06:52:25;;;;;;;12.63;8.10;;;;;;;;;;5051221;28;20528;-69
2021/10/02 06:54:50;;;;;;;12.48;7.97;;;;;;;;;;5062142;28;20076;-70
2021/10/02 06:57:16;;;;;;;13.90;7.80;;;;;;;;;;5066279;28;20060;-70
2021/10/02 06:59:42;;;;;;;13.38;7.70;;;;;;;;;;5052368;28;20033;-70
2021/10/02 07:02:08;;;;;;;12.95;7.75;;;;;;;;;;5040669;28;20033;-70
2021/10/02 07:04:35;;;;;;;12.00;7.30;;;;;;;;;;5055081;28;20058;-70
2021/10/02 07:07:00;;;;;;;11.00;7.05;;;;;;;;;;5030653;28;20033;-69
2021/10/02 07:09:26;;;;;;;10.65;6.85;;;;;;;;;;5060945;28;20077;-70
2021/10/02 07:11:52;;;;;;;11.18;7.15;;;;;;;;;;5052903;28;20103;-69
2021/10/02 07:14:17;;;;;;;13.68;7.20;;;;;;;;;;5070742;28;20111;-70
2021/10/02 07:16:43;;;;;;;12.00;6.70;;;;;;;;;;5052868;28;20119;-70
2021/10/02 07:19:12;;;;;;;10.60;6.43;;;;;;;;;;5050707;28;20138;-70
2021/10/02 07:21:37;;;;;;;10.00;6.38;;;;;;;;;;5054529;28;20029;-70
2021/10/02 07:24:04;;;;;;;9.07;6.47;;;;;;;;;;5047535;28;20072;-70
2021/10/02 07:26:29;;;;;;;12.43;7.05;;;;;;;;;;5051492;28;20029;-70
2021/10/02 07:28:54;;;;;;;10.85;6.35;;;;;;;;;;5060376;28;20358;-70
2021/10/02 07:31:20;;;;;;;15.48;7.80;;;;;;;;;;5064343;28;20108;-70
2021/10/02 07:33:48;;;;;;;10.45;6.72;;;;;;;;;;5065037;28;20036;-70
2021/10/02 07:36:14;;;;;;;14.15;8.32;;;;;;;;;;5060349;28;20117;-70
2021/10/02 07:38:40;;;;;;;11.77;7.30;;;;;;;;;;5070034;28;20036;-70
2021/10/02 07:41:06;;;;;;;12.85;7.53;;;;;;;;;;5070053;28;20032;-69
2021/10/02 07:43:34;;;;;;;12.98;7.82;;;;;;;;;;5059384;28;20144;-70
2021/10/02 07:46:00;;;;;;;13.43;7.00;;;;;;;;;;5050949;28;20017;-70
2021/10/02 07:48:26;;;;;;;11.00;6.85;;;;;;;;;;5039741;28;20236;-69
2021/10/02 07:50:54;;;;;;;12.85;6.93;;;;;;;;;;5052541;28;20025;-69
2021/10/02 07:53:22;;;;;;;11.52;6.60;;;;;;;;;;5049270;28;20025;-69
2021/10/02 07:55:49;;;;;;;10.80;6.80;;;;;;;;;;5047185;28;20479;-69
2021/10/02 07:58:15;;;;;;;12.05;6.88;;;;;;;;;;5050810;28;20029;-69
2021/10/02 08:00:40;;;;;;;8.95;5.70;;;;;;;;;;5061389;28;20473;-70
2021/10/02 08:03:06;;;;;;;10.55;5.97;;;;;;;;;;5074072;28;20035;-70
2021/10/02 08:05:32;;;;;;;7.55;5.35;;;;;;;;;;5068354;28;20045;-70
2021/10/02 08:08:01;;;;;;;9.15;5.38;;;;;;;;;;5054595;28;20029;-70
2021/10/02 08:10:28;;;;;;;10.27;5.72;;;;;;;;;;5054551;28;20021;-68
2021/10/02 08:12:54;;;;;;;10.77;5.63;;;;;;;;;;5054468;28;20043;-69
2021/10/02 08:15:21;;;;;;;8.15;5.03;;;;;;;;;;5054984;28;20024;-69
2021/10/02 08:17:48;;;;;;;8.20;4.72;;;;;;;;;;5055768;28;20028;-69
2021/10/02 08:20:16;;;;;;;11.00;5.20;;;;;;;;;;5074919;28;20358;-68
2021/10/02 08:22:45;;;;;;;8.23;5.03;;;;;;;;;;5074819;28;20021;-68
2021/10/02 08:25:12;;;;;;;9.68;4.68;;;;;;;;;;5074757;28;20033;-68
2021/10/02 08:27:39;;;;;;;7.18;4.30;;;;;;;;;;5075248;28;20039;-68
2021/10/02 08:30:07;;;;;;;7.45;4.50;;;;;;;;;;5072032;28;20354;-68
2021/10/02 08:32:33;;;;;;;8.70;5.13;;;;;;;;;;5054844;28;20032;-68
2021/10/02 08:34:58;;;;;;;8.63;4.20;;;;;;;;;;5054736;28;20037;-68
2021/10/02 08:37:24;;;;;;;8.05;3.90;;;;;;;;;;5054821;28;20037;-69
2021/10/02 08:39:49;;;;;;;7.63;4.00;;;;;;;;;;5056547;28;20031;-69
2021/10/02 08:42:16;;;;;;;6.85;4.30;;;;;;;;;;5074325;28;20022;-68
2021/10/02 08:44:42;;;;;;;5.97;3.47;;;;;;;;;;5059537;28;20060;-69
2021/10/02 08:47:09;;;;;;;5.90;3.22;;;;;;;;;;5055478;28;20079;-69
2021/10/02 08:49:41;;;;;;;6.25;3.70;;;;;;;;;;5055544;28;20063;-68
2021/10/02 08:52:07;;;;;;;6.85;3.67;;;;;;;;;;5016579;28;20028;-68
2021/10/02 08:54:36;;;;;;;6.47;2.97;;;;;;;;;;5034567;28;20481;-68
2021/10/02 08:57:02;;;;;;;5.68;2.60;;;;;;;;;;5050701;28;20016;-69
2021/10/02 08:59:28;;;;;;;8.20;3.00;;;;;;;;;;5053305;28;20373;-69
2021/10/02 09:01:54;;;;;;;9.77;2.55;;;;;;;;;;5051988;28;20029;-68
2021/10/02 09:04:19;;;;;;;5.75;2.63;;;;;;;;;;5052651;28;20102;-69
2021/10/02 09:06:45;;;;;;;3.97;2.22;;;;;;;;;;5053200;28;20130;-68
2021/10/02 09:09:10;;;;;;;4.28;2.40;;;;;;;;;;5053092;28;20017;-69
2021/10/02 09:11:36;;;;;;;6.90;2.63;;;;;;;;;;5053089;28;20020;-68
2021/10/02 09:14:02;;;;;;;4.78;2.70;;;;;;;;;;5052987;28;20025;-68
2021/10/02 09:16:27;;;;;;;7.25;2.70;;;;;;;;;;5052759;28;20083;-69
2021/10/02 09:18:53;;;;;;;4.68;2.60;;;;;;;;;;5052842;28;20461;-69
2021/10/02 09:21:18;;;;;;;6.10;2.70;;;;;;;;;;5052566;28;20052;-68
2021/10/02 09:23:48;;;;;;;5.30;2.42;;;;;;;;;;5052879;28;20079;-68
2021/10/02 09:26:14;;;;;;;4.90;2.65;;;;;;;;;;5052622;28;20038;-68
2021/10/02 09:28:49;;;;;;;5.90;3.00;;;;;;;;;;5052763;28;20029;-69
2021/10/02 09:31:18;;;;;;;5.82;2.38;;;;;;;;;;5052443;28;20091;-69
2021/10/02 09:33:47;;;;;;;6.70;2.90;;;;;;;;;;5052546;28;20029;-69
2021/10/02 09:36:19;;;;;;;5.90;3.33;;;;;;;;;;5052421;28;20362;-68
2021/10/02 09:38:49;;;;;;;4.82;2.65;;;;;;;;;;5052568;28;20499;-69
2021/10/02 09:41:14;;;;;;;5.32;2.88;;;;;;;;;;5052214;28;20108;-69
2021/10/02 09:43:49;;;;;;;7.43;2.72;;;;;;;;;;5052383;28;20123;-69
2021/10/02 09:46:15;;;;;;;5.55;3.08;;;;;;;;;;5052213;28;20021;-68
2021/10/02 09:48:51;;;;;;;7.38;3.47;;;;;;;;;;5052359;28;20496;-68
2021/10/02 09:51:17;;;;;;;6.78;3.92;;;;;;;;;;5034180;28;20025;-69
2021/10/02 09:53:44;;;;;;;7.80;5.50;;;;;;;;;;5052245;28;20020;-69
2021/10/02 09:56:12;;;;;;;10.32;5.85;;;;;;;;;;5051778;28;20107;-68
2021/10/02 09:58:38;;;;;;;9.05;5.63;;;;;;;;;;5052165;28;20029;-69
2021/10/02 10:01:06;;;;;;;9.38;6.43;;;;;;;;;;5052130;28;20035;-68
2021/10/02 10:03:43;;;;;;;12.93;7.20;;;;;;;;;;5051583;28;20155;-68
2021/10/02 10:06:27;;;;;;;8.82;7.15;;;;;;;;;;5051750;28;20049;-68
2021/10/02 10:09:10;;;;;;;13.30;7.93;;;;;;;;;;5051952;28;20535;-68
2021/10/02 10:11:48;;;;;;;10.90;8.57;;;;;;;;;;5051905;28;20025;-69
2021/10/02 10:14:19;;;;;;;14.60;9.75;;;;;;;;;;5051226;28;20028;-69
2021/10/02 10:16:44;;;;;;;13.25;9.20;;;;;;;;;;5051756;28;20047;-68
2021/10/02 10:19:36;;;;;;;14.63;10.23;;;;;;;;;;5051531;28;20476;-68
2021/10/02 10:22:04;;;;;;;13.73;9.25;;;;;;;;;;5048481;28;20500;-68
2021/10/02 10:24:29;;;;;;;14.18;9.77;;;;;;;;;;5051381;28;20029;-68
2021/10/02 10:26:55;;;;;;;14.32;10.55;;;;;;;;;;5051854;28;20035;-69
2021/10/02 10:29:21;;;;;;;13.85;9.77;;;;;;;;;;5051257;28;20021;-69
2021/10/02 10:31:57;;;;;;;13.85;9.90;;;;;;;;;;5051838;28;20104;-68
2021/10/02 10:34:23;;;;;;;14.80;10.48;;;;;;;;;;5051187;28;20024;-68
2021/10/02 10:36:49;;;;;;;14.02;10.00;;;;;;;;;;5051440;28;20107;-68
2021/10/02 10:39:16;;;;;;;11.25;9.20;;;;;;;;;;5051184;28;20025;-68
2021/10/02 10:41:41;;;;;;;14.63;10.98;;;;;;;;;;5051329;28;20029;-68
2021/10/02 10:44:07;;;;;;;16.40;11.02;;;;;;;;;;5051282;28;20439;-68
2021/10/02 10:46:33;;;;;;;15.98;11.27;;;;;;;;;;5050988;28;20112;-68
2021/10/02 10:48:59;;;;;;;14.85;10.68;;;;;;;;;;5051517;28;20035;-68
2021/10/02 10:51:28;;;;;;;18.58;10.90;;;;;;;;;;5050973;28;20024;-68
2021/10/02 10:53:54;;;;;;;19.15;11.38;;;;;;;;;;5051493;28;20493;-68
2021/10/02 10:56:40;;;;;;;16.48;11.07;;;;;;;;;;5050804;28;20021;-68
2021/10/02 10:59:05;;;;;;;15.63;11.80;;;;;;;;;;5051023;28;20357;-68
2021/10/02 11:01:34;;;;;;;14.38;11.52;;;;;;;;;;5050738;28;20087;-68
2021/10/02 11:03:59;;;;;;;17.15;12.20;;;;;;;;;;5050829;28;20053;-68
2021/10/02 11:06:52;;;;;;;15.90;11.73;;;;;;;;;;5050700;28;20116;-68
2021/10/02 11:09:41;;;;;;;17.83;11.88;;;;;;;;;;5050909;28;20103;-68
2021/10/02 11:12:11;;;;;;;17.83;11.88;;;;;;;;;;5050866;28;20497;-69
2021/10/02 11:14:54;;;;;;;16.33;11.85;;;;;;;;;;5050860;28;20025;-69
2021/10/02 11:17:44;;;;;;;19.75;12.60;;;;;;;;;;5050559;28;20099;-69
2021/10/02 11:20:20;;;;;;;16.40;11.88;;;;;;;;;;5032846;28;20035;-68
2021/10/02 11:23:23;;;;;;;15.23;11.77;;;;;;;;;;5050712;28;20358;-69
2021/10/02 11:26:23;;;;;;;16.92;11.52;;;;;;;;;;5050013;28;20028;-69
2021/10/02 11:28:58;;;;;;;17.65;12.25;;;;;;;;;;5050605;28;20029;-68
2021/10/02 11:31:24;;;;;;;19.98;12.52;;;;;;;;;;5050363;28;20024;-69
2021/10/02 11:33:53;;;;;;;16.70;12.40;;;;;;;;;;5050599;28;20036;-68
2021/10/02 11:36:39;;;;;;;18.33;11.35;;;;;;;;;;5050346;28;20041;-68
2021/10/02 11:39:10;;;;;;;18.13;11.95;;;;;;;;;;5050481;28;20025;-69
2021/10/02 11:41:40;;;;;;;17.13;11.77;;;;;;;;;;5050279;28;20028;-69
2021/10/02 11:44:07;;;;;;;15.05;11.60;;;;;;;;;;5050534;28;20072;-68
2021/10/02 11:46:32;;;;;;;16.80;11.68;;;;;;;;;;5050272;28;20036;-68
2021/10/02 11:49:17;;;;;;;19.23;11.93;;;;;;;;;;5050505;28;20033;-68
2021/10/02 11:52:10;;;;;;;19.25;12.07;;;;;;;;;;5050439;28;20020;-68
2021/10/02 11:54:36;;;;;;;17.95;11.38;;;;;;;;;;5050272;28;20029;-69
2021/10/02 11:57:14;;;;;;;15.57;10.98;;;;;;;;;;5032400;28;20032;-68
2021/10/02 11:59:44;;;;;;;15.50;10.57;;;;;;;;;;5050336;28;20028;-69
2021/10/02 12:02:11;;;;;;;16.23;11.90;;;;;;;;;;5050669;28;20028;-68
2021/10/02 12:04:38;;;;;;;17.17;11.93;;;;;;;;;;5049980;28;20726;-69
2021/10/02 12:07:03;;;;;;;17.33;12.95;;;;;;;;;;5050367;28;20041;-69
2021/10/02 12:09:30;;;;;;;16.40;11.95;;;;;;;;;;5050082;28;20051;-69
2021/10/02 12:11:57;;;;;;;16.35;11.50;;;;;;;;;;5050335;28;20021;-68
2021/10/02 12:14:25;;;;;;;17.52;12.15;;;;;;;;;;5050047;28;20104;-69
2021/10/02 12:16:53;;;;;;;15.85;12.20;;;;;;;;;;5050646;28;20021;-69
2021/10/02 12:19:22;;;;;;;19.40;13.20;;;;;;;;;;5049988;28;20029;-68
2021/10/02 12:21:55;;;;;;;21.00;12.55;;;;;;;;;;5050189;28;20021;-68
2021/10/02 12:24:26;;;;;;;19.48;12.63;;;;;;;;;;5050286;28;20112;-68
2021/10/02 12:27:06;;;;;;;20.65;13.60;;;;;;;;;;5050158;28;20124;-69
2021/10/02 12:29:37;;;;;;;16.00;12.75;;;;;;;;;;5049874;28;20021;-69
2021/10/02 12:32:11;;;;;;;20.25;14.35;;;;;;;;;;5050123;28;20074;-69
2021/10/02 12:35:05;;;;;;;17.27;12.40;;;;;;;;;;5046777;28;20049;-68
2021/10/02 12:37:33;;;;;;;17.02;12.20;;;;;;;;;;5052212;28;20024;-69
2021/10/02 12:40:11;;;;;;;16.63;11.98;;;;;;;;;;5049364;28;20056;-68
2021/10/02 12:42:36;;;;;;;17.20;12.77;;;;;;;;;;5073427;28;20032;-68
2021/10/02 12:45:12;;;;;;;23.20;13.32;;;;;;;;;;5069427;28;20353;-69
2021/10/02 12:47:38;;;;;;;17.88;12.93;;;;;;;;;;5053488;28;20098;-69
2021/10/02 12:50:08;;;;;;;21.38;13.10;;;;;;;;;;5035585;28;20500;-69
2021/10/02 12:52:34;;;;;;;18.75;12.20;;;;;;;;;;5052827;28;20079;-68
2021/10/02 12:55:00;;;;;;;21.58;12.98;;;;;;;;;;5035450;28;20028;-68
2021/10/02 12:57:34;;;;;;;19.73;13.02;;;;;;;;;;5052477;28;20545;-68
2021/10/02 13:00:14;;;;;;;17.88;13.07;;;;;;;;;;5039089;28;20127;-68
2021/10/02 13:02:54;;;;;;;17.17;12.90;;;;;;;;;;5050170;28;20029;-68
2021/10/02 13:05:21;;;;;;;18.02;12.90;;;;;;;;;;5060526;28;20481;-68
2021/10/02 13:07:49;;;;;;;20.63;13.32;;;;;;;;;;5052156;28;20147;-68
2021/10/02 13:10:22;;;;;;;19.98;13.27;;;;;;;;;;5050724;28;20051;-68
2021/10/02 13:12:56;;;;;;;17.57;12.27;;;;;;;;;;5036115;28;20033;-68
2021/10/02 13:15:47;;;;;;;;;;;;;;;;;;5054444;28;20136;-69
2021/10/02 13:18:24;;;;;;;17.65;12.02;;;;;;;;;;5054728;28;20000;-68
2021/10/02 13:21:06;;;;;;;17.98;12.27;;;;;;;;;;5046206;28;20427;-68
2021/10/02 13:23:39;;;;;;;16.83;12.32;;;;;;;;;;5052336;28;20043;-68
2021/10/02 13:26:06;;;;;;;16.13;12.00;;;;;;;;;;5053359;28;20416;-69
2021/10/02 13:28:33;;;;;;;16.75;12.50;;;;;;;;;;5053545;28;20464;-68
2021/10/02 13:31:06;;;;;;;16.00;11.38;;;;;;;;;;5053627;28;20040;-68
2021/10/02 13:33:38;;;;;;;14.68;10.63;;;;;;;;;;5053015;28;20439;-68
2021/10/02 13:36:04;;;;;;;16.25;11.65;;;;;;;;;;5048795;28;20112;-69
2021/10/02 13:38:36;;;;;;;15.27;11.05;;;;;;;;;;5035357;28;20024;-68
2021/10/02 13:41:09;;;;;;;17.42;12.02;;;;;;;;;;5053481;28;20098;-68
2021/10/02 13:44:00;;;;;;;15.02;11.65;;;;;;;;;;5053162;28;20382;-69
2021/10/02 13:46:36;;;;;;;20.08;12.40;;;;;;;;;;5052177;28;20095;-68
2021/10/02 13:49:05;;;;;;;17.05;11.70;;;;;;;;;;5054536;28;20036;-68
2021/10/02 13:51:31;;;;;;;19.17;12.05;;;;;;;;;;5056958;28;20147;-68
2021/10/02 13:53:57;;;;;;;16.40;11.23;;;;;;;;;;5053834;28;20103;-69
2021/10/02 13:56:23;;;;;;;14.32;11.05;;;;;;;;;;5060366;28;20028;-68
2021/10/02 13:58:49;;;;;;;17.67;11.35;;;;;;;;;;5041613;28;20394;-69
2021/10/02 14:01:15;;;;;;;16.35;10.77;;;;;;;;;;5055377;28;20031;-69
2021/10/02 14:03:41;;;;;;;21.10;11.82;;;;;;;;;;5054835;28;20029;-69
2021/10/02 14:06:06;;;;;;;19.27;12.43;;;;;;;;;;5052995;28;20037;-68
2021/10/02 14:08:32;;;;;;;17.08;11.57;;;;;;;;;;5052501;28;20025;-69
2021/10/02 14:10:58;;;;;;;15.68;11.63;;;;;;;;;;5052666;28;20104;-69
2021/10/02 14:13:24;;;;;;;22.00;12.38;;;;;;;;;;5052829;28;20021;-69
2021/10/02 14:15:49;;;;;;;19.58;11.75;;;;;;;;;;5054194;28;20028;-69
2021/10/02 14:18:15;;;;;;;17.45;11.57;;;;;;;;;;5053802;28;20021;-68
2021/10/02 14:20:40;;;;;;;16.90;11.57;;;;;;;;;;5051802;28;20028;-68
2021/10/02 14:23:06;;;;;;;14.05;10.48;;;;;;;;;;5055755;28;20376;-68
2021/10/02 14:25:32;;;;;;;20.38;11.65;;;;;;;;;;5044325;28;20060;-68
2021/10/02 14:27:57;;;;;;;17.15;11.98;;;;;;;;;;5034199;28;20017;-68
2021/10/02 14:30:23;;;;;;;18.98;10.98;;;;;;;;;;5051749;28;20048;-69
2021/10/02 14:32:49;;;;;;;15.48;11.35;;;;;;;;;;5033490;28;20029;-69
2021/10/02 14:35:15;;;;;;;17.38;11.05;;;;;;;;;;5051377;28;20112;-68
2021/10/02 14:37:41;;;;;;;17.67;10.57;;;;;;;;;;5051405;28;20585;-69
2021/10/02 14:40:09;;;;;;;14.73;10.32;;;;;;;;;;5063097;28;20100;-68
2021/10/02 14:42:34;;;;;;;15.82;10.52;;;;;;;;;;5051376;28;20029;-69
2021/10/02 14:45:00;;;;;;;14.48;10.68;;;;;;;;;;5050509;28;20116;-68
2021/10/02 14:47:26;;;;;;;15.23;10.25;;;;;;;;;;5032989;28;20152;-69
2021/10/02 14:49:52;;;;;;;13.90;10.43;;;;;;;;;;5033620;28;20037;-69
2021/10/02 14:52:19;;;;;;;18.70;10.68;;;;;;;;;;5033430;28;20049;-68
2021/10/02 14:54:45;;;;;;;20.45;12.10;;;;;;;;;;5050749;28;20621;-68
2021/10/02 14:57:10;;;;;;;13.85;10.45;;;;;;;;;;5053397;28;20027;-69
2021/10/02 14:59:37;;;;;;;17.30;11.15;;;;;;;;;;5051368;28;20033;-68
2021/10/02 15:02:05;;;;;;;16.30;12.13;;;;;;;;;;5051476;28;20024;-67
2021/10/02 15:04:35;;;;;;;16.08;10.05;;;;;;;;;;5051291;28;20512;-68
2021/10/02 15:07:03;;;;;;;15.30;10.60;;;;;;;;;;5051668;28;20036;-69
2021/10/02 15:09:30;;;;;;;14.95;10.48;;;;;;;;;;5051416;28;20103;-69
2021/10/02 15:11:59;;;;;;;16.85;11.20;;;;;;;;;;5033520;28;20484;-69
2021/10/02 15:14:25;;;;;;;16.65;11.68;;;;;;;;;;5051297;28;20040;-69
2021/10/02 15:16:51;;;;;;;14.90;11.07;;;;;;;;;;5051951;28;20071;-67
2021/10/02 15:19:17;;;;;;;16.35;11.00;;;;;;;;;;5033130;28;20071;-68
2021/10/02 15:21:48;;;;;;;17.45;10.45;;;;;;;;;;5051370;28;21048;-68
2021/10/02 15:24:16;;;;;;;14.90;10.73;;;;;;;;;;5058206;28;20029;-68
2021/10/02 15:26:42;;;;;;;14.63;10.40;;;;;;;;;;5050697;28;20025;-68
2021/10/02 15:29:08;;;;;;;14.85;10.73;;;;;;;;;;5051207;28;20100;-69
2021/10/02 15:31:36;;;;;;;12.85;10.38;;;;;;;;;;5065649;28;20504;-67
2021/10/02 15:34:06;;;;;;;17.77;11.18;;;;;;;;;;5054070;28;20445;-68